createdAt,value
2023-11-19T00:00:53.202Z,4.69
2023-11-19T00:01:59.079Z,4.69
2023-11-19T00:03:04.339Z,4.75
2023-11-19T00:04:06.615Z,4.76
2023-11-19T00:05:14.579Z,4.72
2023-11-19T00:06:18.107Z,4.72
2023-11-19T00:07:30.483Z,4.73
2023-11-19T00:08:37.256Z,4.76
2023-11-19T00:09:42.177Z,4.76
2023-11-19T00:10:44.414Z,4.77
2023-11-19T00:12:54.188Z,4.80
2023-11-19T00:13:58.984Z,4.81
2023-11-19T00:15:03.957Z,4.81
2023-11-19T00:16:08.848Z,4.84
2023-11-19T00:17:13.795Z,4.89
2023-11-19T00:18:16.045Z,4.93
2023-11-19T00:19:20.976Z,4.98
2023-11-19T00:20:23.404Z,5.04
2023-11-19T00:21:29.898Z,5.06
2023-11-19T00:22:33.055Z,5.10
2023-11-19T00:23:37.938Z,5.14
2023-11-19T00:24:40.469Z,5.18
2023-11-19T00:25:45.696Z,5.27
2023-11-19T00:26:48.123Z,5.32
2023-11-19T00:27:54.833Z,5.36
2023-11-19T00:28:57.490Z,5.41
2023-11-19T00:30:02.409Z,5.42
2023-11-19T00:31:07.435Z,5.45
2023-11-19T00:32:13.009Z,5.44
2023-11-19T00:33:15.270Z,5.46
2023-11-19T00:34:22.666Z,5.47
2023-11-19T00:35:25.026Z,5.47
2023-11-19T00:36:29.790Z,5.48
2023-11-19T00:37:32.011Z,5.54
2023-11-19T00:38:37.165Z,5.57
2023-11-19T00:39:39.452Z,5.60
2023-11-19T00:40:45.536Z,5.67
2023-11-19T00:41:47.716Z,5.67
2023-11-19T00:42:52.874Z,5.64
2023-11-19T00:43:55.108Z,5.67
2023-11-19T00:44:59.887Z,5.65
2023-11-19T00:46:02.258Z,5.68
2023-11-19T00:47:09.778Z,5.67
2023-11-19T00:48:12.037Z,5.73
2023-11-19T00:49:17.021Z,5.78
2023-11-19T00:50:19.843Z,5.74
2023-11-19T00:51:24.682Z,5.77
2023-11-19T00:52:27.224Z,5.79
2023-11-19T00:53:33.395Z,5.80
2023-11-19T00:54:35.541Z,5.81
2023-11-19T00:56:46.041Z,5.89
2023-11-19T00:57:50.889Z,5.90
2023-11-19T00:58:53.048Z,5.91
2023-11-19T00:59:57.829Z,5.96
2023-11-19T01:01:01.190Z,5.98
2023-11-19T01:02:07.682Z,5.99
2023-11-19T01:03:13.259Z,6.03
2023-11-19T01:04:18.623Z,6.09
2023-11-19T01:05:23.169Z,6.10
2023-11-19T01:06:31.423Z,6.08
2023-11-19T01:07:33.593Z,6.10
2023-11-19T01:08:39.084Z,6.10
2023-11-19T01:09:43.181Z,6.09
2023-11-19T01:10:49.066Z,6.09
2023-11-19T01:11:51.187Z,6.09
2023-11-19T01:12:55.985Z,6.11
2023-11-19T01:13:58.140Z,6.11
2023-11-19T01:15:02.341Z,6.12
2023-11-19T01:16:08.455Z,6.14
2023-11-19T01:17:10.684Z,6.22
2023-11-19T01:18:18.073Z,6.21
2023-11-19T01:19:20.500Z,6.21
2023-11-19T01:20:25.437Z,6.20
2023-11-19T01:21:27.660Z,6.20
2023-11-19T01:22:32.521Z,6.17
2023-11-19T01:23:35.537Z,6.25
2023-11-19T01:24:40.218Z,6.26
2023-11-19T01:25:42.471Z,6.24
2023-11-19T01:26:46.733Z,6.24
2023-11-19T01:27:51.686Z,6.30
2023-11-19T01:28:54.363Z,6.30
2023-11-19T01:29:59.074Z,6.27
2023-11-19T01:31:01.228Z,6.33
2023-11-19T01:32:06.011Z,6.40
2023-11-19T01:33:09.035Z,6.46
2023-11-19T01:34:16.783Z,6.48
2023-11-19T01:35:18.918Z,6.46
2023-11-19T01:36:23.860Z,6.51
2023-11-19T01:37:26.034Z,6.54
2023-11-19T01:38:32.146Z,6.59
2023-11-19T01:39:36.751Z,6.57
2023-11-19T01:40:41.566Z,6.60
2023-11-19T01:41:43.920Z,6.62
2023-11-19T01:42:50.803Z,6.60
2023-11-19T01:43:53.384Z,6.56
2023-11-19T01:45:02.647Z,6.56
2023-11-19T01:46:07.317Z,6.55
2023-11-19T01:47:12.885Z,6.55
2023-11-19T01:48:17.270Z,6.56
2023-11-19T01:49:24.843Z,6.57
2023-11-19T01:50:27.811Z,6.58
2023-11-19T01:51:32.937Z,6.57
2023-11-19T01:52:37.991Z,6.60
2023-11-19T01:53:44.416Z,6.58
2023-11-19T01:54:46.674Z,6.58
2023-11-19T01:55:53.690Z,6.58
2023-11-19T01:56:58.457Z,6.63
2023-11-19T01:58:08.769Z,6.65
2023-11-19T01:59:14.388Z,6.69
2023-11-19T02:00:20.510Z,6.74
2023-11-19T02:01:23.408Z,6.75
2023-11-19T02:02:29.227Z,6.71
2023-11-19T02:03:34.203Z,6.68
2023-11-19T02:04:42.462Z,6.73
2023-11-19T02:05:44.731Z,6.69
2023-11-19T02:06:53.853Z,6.75
2023-11-19T02:07:56.064Z,6.78
2023-11-19T02:09:00.776Z,6.76
2023-11-19T02:10:04.348Z,6.78
2023-11-19T02:11:10.609Z,6.81
2023-11-19T02:12:13.095Z,6.81
2023-11-19T02:13:15.419Z,6.80
2023-11-19T02:14:21.257Z,6.81
2023-11-19T02:15:25.629Z,6.83
2023-11-19T02:16:31.139Z,6.82
2023-11-19T02:17:33.621Z,6.80
2023-11-19T02:18:38.301Z,6.82
2023-11-19T02:19:43.020Z,6.85
2023-11-19T02:20:45.126Z,6.81
2023-11-19T02:21:50.353Z,6.84
2023-11-19T02:22:52.490Z,6.81
2023-11-19T02:24:08.936Z,6.84
2023-11-19T02:25:18.513Z,6.82
2023-11-19T02:26:32.415Z,6.87
2023-11-19T02:27:57.219Z,6.81
2023-11-19T02:29:04.139Z,6.85
2023-11-19T02:30:09.907Z,6.84
2023-11-19T02:31:15.741Z,6.82
2023-11-19T02:32:18.301Z,6.85
2023-11-19T02:33:20.578Z,6.87
2023-11-19T02:34:27.140Z,6.86
2023-11-19T02:35:32.267Z,6.83
2023-11-19T02:36:36.978Z,6.91
2023-11-19T02:37:40.392Z,6.87
2023-11-19T02:38:45.127Z,6.88
2023-11-19T02:39:47.282Z,6.91
2023-11-19T02:40:52.104Z,6.82
2023-11-19T02:41:54.667Z,6.85
2023-11-19T02:43:02.165Z,6.88
2023-11-19T02:44:06.687Z,6.91
2023-11-19T02:45:15.651Z,6.84
2023-11-19T02:46:18.784Z,6.86
2023-11-19T02:47:25.313Z,6.83
2023-11-19T02:48:27.464Z,6.84
2023-11-19T02:49:32.198Z,6.83
2023-11-19T02:50:34.441Z,6.86
2023-11-19T02:51:39.838Z,6.82
2023-11-19T02:52:42.109Z,6.83
2023-11-19T02:53:49.761Z,6.86
2023-11-19T02:54:52.078Z,6.86
2023-11-19T02:56:02.447Z,6.91
2023-11-19T02:57:06.040Z,6.86
2023-11-19T02:58:21.619Z,6.82
2023-11-19T02:59:28.712Z,6.81
2023-11-19T03:00:38.118Z,6.85
2023-11-19T03:01:45.123Z,6.81
2023-11-19T03:02:59.719Z,6.84
2023-11-19T03:04:04.353Z,6.84
2023-11-19T03:05:10.199Z,6.85
2023-11-19T03:06:12.791Z,6.84
2023-11-19T03:07:19.115Z,6.89
2023-11-19T03:08:24.045Z,6.91
2023-11-19T03:09:30.384Z,6.88
2023-11-19T03:10:32.717Z,6.86
2023-11-19T03:11:37.582Z,6.84
2023-11-19T03:12:40.060Z,6.88
2023-11-19T03:13:48.045Z,6.85
2023-11-19T03:14:52.045Z,6.86
2023-11-19T03:15:56.967Z,6.88
2023-11-19T03:16:59.194Z,6.87
2023-11-19T03:18:04.080Z,6.86
2023-11-19T03:19:06.356Z,6.89
2023-11-19T03:20:16.444Z,6.92
2023-11-19T03:21:18.782Z,6.91
2023-11-19T03:22:23.535Z,6.86
2023-11-19T03:23:26.294Z,6.92
2023-11-19T03:24:31.098Z,6.90
2023-11-19T03:25:35.102Z,6.91
2023-11-19T03:26:40.506Z,6.89
2023-11-19T03:27:43.177Z,6.91
2023-11-19T03:28:50.481Z,6.90
2023-11-19T03:29:52.731Z,6.95
2023-11-19T03:30:57.852Z,6.89
2023-11-19T03:32:00.065Z,6.93
2023-11-19T03:33:05.214Z,6.91
2023-11-19T03:34:07.491Z,6.95
2023-11-19T03:35:10.714Z,6.92
2023-11-19T03:36:15.625Z,6.91
2023-11-19T03:37:18.830Z,6.90
2023-11-19T03:38:23.663Z,6.91
2023-11-19T03:39:26.491Z,6.92
2023-11-19T03:40:29.208Z,6.96
2023-11-19T03:42:40.969Z,7.03
2023-11-19T03:43:46.458Z,6.99
2023-11-19T03:44:51.187Z,6.98
2023-11-19T03:45:56.082Z,6.95
2023-11-19T03:46:58.312Z,6.92
2023-11-19T03:48:03.127Z,6.92
2023-11-19T03:49:05.962Z,6.91
2023-11-19T03:50:12.065Z,6.92
2023-11-19T03:51:16.533Z,6.90
2023-11-19T03:52:20.754Z,6.91
2023-11-19T03:53:26.020Z,6.88
2023-11-19T03:54:29.151Z,6.89
2023-11-19T03:55:34.221Z,6.89
2023-11-19T03:56:36.442Z,6.86
2023-11-19T03:57:38.571Z,6.85
2023-11-19T03:58:44.374Z,6.87
2023-11-19T03:59:46.490Z,6.85
2023-11-19T04:00:53.914Z,6.86
2023-11-19T04:01:57.889Z,6.87
2023-11-19T04:03:02.702Z,6.86
2023-11-19T04:04:05.532Z,6.83
2023-11-19T04:05:08.543Z,6.83
2023-11-19T04:06:13.298Z,6.82
2023-11-19T04:07:15.437Z,6.82
2023-11-19T04:08:20.872Z,6.83
2023-11-19T04:09:23.083Z,6.82
2023-11-19T04:10:28.894Z,6.82
2023-11-19T04:11:34.218Z,6.79
2023-11-19T04:12:39.607Z,6.79
2023-11-19T04:13:41.847Z,6.79
2023-11-19T04:14:46.674Z,6.78
2023-11-19T04:15:51.656Z,6.80
2023-11-19T04:16:56.721Z,6.83
2023-11-19T04:17:58.881Z,6.82
2023-11-19T04:19:01.070Z,6.82
2023-11-19T04:20:07.138Z,6.86
2023-11-19T04:21:09.473Z,6.88
2023-11-19T04:22:14.259Z,6.90
2023-11-19T04:23:16.391Z,6.87
2023-11-19T04:24:21.065Z,6.89
2023-11-19T04:25:23.276Z,6.92
2023-11-19T04:26:28.179Z,6.92
2023-11-19T04:27:32.136Z,6.89
2023-11-19T04:28:36.859Z,6.90
2023-11-19T04:29:39.006Z,6.94
2023-11-19T04:30:43.721Z,6.92
2023-11-19T04:31:48.562Z,6.90
2023-11-19T04:32:53.388Z,6.90
2023-11-19T04:33:56.716Z,6.93
2023-11-19T04:35:01.576Z,6.98
2023-11-19T04:36:04.111Z,6.99
2023-11-19T04:38:14.157Z,6.94
2023-11-19T04:39:20.232Z,6.99
2023-11-19T04:40:24.176Z,7.03
2023-11-19T04:41:29.099Z,7.10
2023-11-19T04:42:31.211Z,7.06
2023-11-19T04:43:36.194Z,7.07
2023-11-19T04:44:38.610Z,7.12
2023-11-19T04:45:43.399Z,7.11
2023-11-19T04:46:48.401Z,7.10
2023-11-19T04:47:53.255Z,7.18
2023-11-19T04:48:55.550Z,7.16
2023-11-19T04:49:57.665Z,7.18
2023-11-19T04:51:02.544Z,7.19
2023-11-19T04:52:05.918Z,7.25
2023-11-19T04:53:08.032Z,7.27
2023-11-19T04:54:13.267Z,7.33
2023-11-19T04:55:15.939Z,7.34
2023-11-19T04:56:21.133Z,7.34
2023-11-19T04:57:23.243Z,7.38
2023-11-19T04:58:28.229Z,7.40
2023-11-19T04:59:30.483Z,7.37
2023-11-19T05:00:35.237Z,7.40
2023-11-19T05:01:37.457Z,7.40
2023-11-19T05:02:44.988Z,7.39
2023-11-19T05:03:47.162Z,7.36
2023-11-19T05:04:52.051Z,7.37
2023-11-19T05:05:54.950Z,7.43
2023-11-19T05:06:59.788Z,7.39
2023-11-19T05:08:02.693Z,7.40
2023-11-19T05:09:09.131Z,7.46
2023-11-19T05:10:11.562Z,7.46
2023-11-19T05:11:19.352Z,7.48
2023-11-19T05:12:21.496Z,7.48
2023-11-19T05:13:23.975Z,7.47
2023-11-19T05:14:29.161Z,7.48
2023-11-19T05:15:31.316Z,7.50
2023-11-19T05:16:36.576Z,7.56
2023-11-19T05:17:41.595Z,7.60
2023-11-19T05:18:44.478Z,7.56
2023-11-19T05:19:49.959Z,7.58
2023-11-19T05:20:52.107Z,7.60
2023-11-19T05:21:56.823Z,7.59
2023-11-19T05:23:01.594Z,7.59
2023-11-19T05:24:08.559Z,7.63
2023-11-19T05:25:11.928Z,7.61
2023-11-19T05:26:22.504Z,7.61
2023-11-19T05:27:25.204Z,7.58
2023-11-19T05:28:30.068Z,7.62
2023-11-19T05:29:32.189Z,7.67
2023-11-19T05:30:37.001Z,7.68
2023-11-19T05:31:39.920Z,7.66
2023-11-19T05:32:44.815Z,7.67
2023-11-19T05:33:49.668Z,7.68
2023-11-19T05:34:52.763Z,7.68
2023-11-19T05:35:58.380Z,7.70
2023-11-19T05:37:03.008Z,7.67
2023-11-19T05:38:07.820Z,7.68
2023-11-19T05:39:09.976Z,7.65
2023-11-19T05:40:16.792Z,7.64
2023-11-19T05:41:19.078Z,7.65
2023-11-19T05:42:24.936Z,7.64
2023-11-19T05:43:27.025Z,7.66
2023-11-19T05:44:31.754Z,7.69
2023-11-19T05:45:34.068Z,7.70
2023-11-19T05:46:41.878Z,7.73
2023-11-19T05:47:46.709Z,7.70
2023-11-19T05:48:52.490Z,7.71
2023-11-19T05:49:54.885Z,7.75
2023-11-19T05:50:59.804Z,7.78
2023-11-19T05:52:04.493Z,7.74
2023-11-19T05:53:11.612Z,7.77
2023-11-19T05:54:14.813Z,7.81
2023-11-19T05:55:20.658Z,7.76
2023-11-19T05:56:23.188Z,7.75
2023-11-19T05:57:28.830Z,7.75
2023-11-19T05:58:31.740Z,7.73
2023-11-19T05:59:38.168Z,7.76
2023-11-19T06:00:40.384Z,7.75
2023-11-19T06:01:45.832Z,7.73
2023-11-19T06:02:50.626Z,7.76
2023-11-19T06:03:56.029Z,7.78
2023-11-19T06:04:58.106Z,7.78
2023-11-19T06:06:02.822Z,7.77
2023-11-19T06:07:06.509Z,7.81
2023-11-19T06:08:11.264Z,7.79
2023-11-19T06:09:14.643Z,7.80
2023-11-19T06:10:21.752Z,7.84
2023-11-19T06:11:23.921Z,7.84
2023-11-19T06:12:29.021Z,7.87
2023-11-19T06:13:32.688Z,7.87
2023-11-19T06:14:37.485Z,7.93
2023-11-19T06:15:39.853Z,7.89
2023-11-19T06:16:45.298Z,7.93
2023-11-19T06:17:50.152Z,7.93
2023-11-19T06:18:55.196Z,7.93
2023-11-19T06:19:57.330Z,7.96
2023-11-19T06:21:02.137Z,7.97
2023-11-19T06:22:04.702Z,8.02
2023-11-19T06:23:09.427Z,8.00
2023-11-19T06:24:11.588Z,7.99
2023-11-19T06:25:17.140Z,7.96
2023-11-19T06:26:19.615Z,7.94
2023-11-19T06:27:25.999Z,7.96
2023-11-19T06:28:28.206Z,8.01
2023-11-19T06:29:32.933Z,8.03
2023-11-19T06:30:35.058Z,8.00
2023-11-19T06:31:39.861Z,8.00
2023-11-19T06:32:42.008Z,8.00
2023-11-19T06:33:50.317Z,7.99
2023-11-19T06:34:52.468Z,8.00
2023-11-19T06:35:57.223Z,8.02
2023-11-19T06:36:59.385Z,8.07
2023-11-19T06:38:04.094Z,8.04
2023-11-19T06:39:07.269Z,8.07
2023-11-19T06:40:13.565Z,8.07
2023-11-19T06:41:15.776Z,8.09
2023-11-19T06:42:21.206Z,8.07
2023-11-19T06:43:23.321Z,8.11
2023-11-19T06:44:28.461Z,8.10
2023-11-19T06:45:30.599Z,8.12
2023-11-19T06:46:35.318Z,8.12
2023-11-19T06:47:37.514Z,8.16
2023-11-19T06:48:44.269Z,8.16
2023-11-19T06:49:49.005Z,8.18
2023-11-19T06:50:53.693Z,8.22
2023-11-19T06:51:55.836Z,8.20
2023-11-19T06:53:00.634Z,8.23
2023-11-19T06:54:02.795Z,8.25
2023-11-19T06:55:09.781Z,8.25
2023-11-19T06:56:20.055Z,8.24
2023-11-19T06:57:25.093Z,8.26
2023-11-19T06:58:27.183Z,8.30
2023-11-19T06:59:32.195Z,8.26
2023-11-19T07:00:34.431Z,8.33
2023-11-19T07:01:40.066Z,8.32
2023-11-19T07:02:42.331Z,8.34
2023-11-19T07:03:45.548Z,8.31
2023-11-19T07:04:52.900Z,8.30
2023-11-19T07:05:57.080Z,8.29
2023-11-19T07:07:01.782Z,8.33
2023-11-19T07:08:04.283Z,8.37
2023-11-19T07:09:13.152Z,8.38
2023-11-19T07:10:15.310Z,8.40
2023-11-19T07:11:20.566Z,8.38
2023-11-19T07:12:22.695Z,8.38
2023-11-19T07:13:24.806Z,8.39
2023-11-19T07:14:30.024Z,8.39
2023-11-19T07:15:32.137Z,8.39
2023-11-19T07:16:35.629Z,8.39
2023-11-19T07:17:42.734Z,8.42
2023-11-19T07:18:45.521Z,8.43
2023-11-19T07:19:53.994Z,8.41
2023-11-19T07:20:56.425Z,8.43
2023-11-19T07:22:01.094Z,8.44
2023-11-19T07:23:03.964Z,8.45
2023-11-19T07:24:09.982Z,8.49
2023-11-19T07:25:12.159Z,8.49
2023-11-19T07:26:14.297Z,8.51
2023-11-19T07:27:19.759Z,8.50
2023-11-19T07:28:21.904Z,8.50
2023-11-19T07:29:30.344Z,8.52
2023-11-19T07:30:32.792Z,8.52
2023-11-19T07:31:38.445Z,8.52
2023-11-19T07:32:40.697Z,8.52
2023-11-19T07:33:45.941Z,8.53
2023-11-19T07:34:50.741Z,8.55
2023-11-19T07:35:55.773Z,8.54
2023-11-19T07:37:00.754Z,8.57
2023-11-19T07:38:05.523Z,8.54
2023-11-19T07:39:07.664Z,8.58
2023-11-19T07:40:14.159Z,8.55
2023-11-19T07:41:17.205Z,8.56
2023-11-19T07:42:24.235Z,8.56
2023-11-19T07:43:26.401Z,8.59
2023-11-19T07:44:31.137Z,8.61
2023-11-19T07:45:33.359Z,8.61
2023-11-19T07:46:38.142Z,8.62
2023-11-19T07:47:40.368Z,8.60
2023-11-19T07:48:45.773Z,8.60
2023-11-19T07:49:51.404Z,8.60
2023-11-19T07:50:57.311Z,8.61
2023-11-19T07:51:59.785Z,8.65
2023-11-19T07:53:05.942Z,8.65
2023-11-19T07:54:08.462Z,8.65
2023-11-19T07:55:13.190Z,8.66
2023-11-19T07:56:15.440Z,8.66
2023-11-19T07:57:20.403Z,8.68
2023-11-19T07:58:22.544Z,8.67
2023-11-19T07:59:27.479Z,8.70
2023-11-19T08:00:29.656Z,8.70
2023-11-19T08:01:34.435Z,8.69
2023-11-19T08:02:36.716Z,8.73
2023-11-19T08:03:39.199Z,8.73
2023-11-19T08:04:47.263Z,8.76
2023-11-19T08:05:52.299Z,8.74
2023-11-19T08:06:58.007Z,8.74
2023-11-19T08:08:00.430Z,8.73
2023-11-19T08:09:04.993Z,8.74
2023-11-19T08:10:11.314Z,8.77
2023-11-19T08:11:13.631Z,8.81
2023-11-19T08:12:18.900Z,8.82
2023-11-19T08:13:21.944Z,8.85
2023-11-19T08:14:26.809Z,8.83
2023-11-19T08:15:32.455Z,8.85
2023-11-19T08:16:39.084Z,8.87
2023-11-19T08:17:41.429Z,8.90
2023-11-19T08:18:47.448Z,8.93
2023-11-19T08:19:49.631Z,8.91
2023-11-19T08:20:57.821Z,8.94
2023-11-19T08:21:59.979Z,9.01
2023-11-19T08:23:07.478Z,8.97
2023-11-19T08:24:09.752Z,9.01
2023-11-19T08:25:14.657Z,8.98
2023-11-19T08:26:19.511Z,9.00
2023-11-19T08:27:28.213Z,9.04
2023-11-19T08:28:30.676Z,9.05
2023-11-19T08:29:35.714Z,9.06
2023-11-19T08:30:37.881Z,9.09
2023-11-19T08:31:42.600Z,9.09
2023-11-19T08:32:44.826Z,9.13
2023-11-19T08:33:49.653Z,9.13
2023-11-19T08:34:51.828Z,9.13
2023-11-19T08:35:56.578Z,9.18
2023-11-19T08:37:01.407Z,9.27
2023-11-19T08:38:03.583Z,9.27
2023-11-19T08:39:09.900Z,9.31
2023-11-19T08:40:13.551Z,9.30
2023-11-19T08:41:20.650Z,9.34
2023-11-19T08:42:23.212Z,9.50
2023-11-19T08:43:28.013Z,9.60
2023-11-19T08:44:30.147Z,9.49
2023-11-19T08:45:35.049Z,9.50
2023-11-19T08:46:37.271Z,9.53
2023-11-19T08:47:42.259Z,9.54
2023-11-19T08:48:44.525Z,9.53
2023-11-19T08:50:03.533Z,9.69
2023-11-19T08:51:09.237Z,9.88
2023-11-19T08:52:14.158Z,9.92
2023-11-19T08:53:16.603Z,9.96
2023-11-19T08:54:22.672Z,9.89
2023-11-19T08:55:24.861Z,9.91
2023-11-19T08:56:34.040Z,9.87
2023-11-19T08:57:36.286Z,9.86
2023-11-19T08:58:41.218Z,9.93
2023-11-19T08:59:43.446Z,9.90
2023-11-19T09:00:48.228Z,9.90
2023-11-19T09:01:50.545Z,9.91
2023-11-19T09:02:55.520Z,9.94
2023-11-19T09:03:58.932Z,9.93
2023-11-19T09:05:01.176Z,9.84
2023-11-19T09:06:05.958Z,9.88
2023-11-19T09:07:11.056Z,9.82
2023-11-19T09:08:15.977Z,9.84
2023-11-19T09:09:18.219Z,9.80
2023-11-19T09:10:22.957Z,9.81
2023-11-19T09:11:25.378Z,9.81
2023-11-19T09:12:30.184Z,9.82
2023-11-19T09:13:32.326Z,9.82
2023-11-19T09:14:37.223Z,9.82
2023-11-19T09:15:39.468Z,9.88
2023-11-19T09:16:44.321Z,9.79
2023-11-19T09:17:47.024Z,9.75
2023-11-19T09:18:51.895Z,9.80
2023-11-19T09:19:54.096Z,9.76
2023-11-19T09:20:58.839Z,9.74
2023-11-19T09:22:01.002Z,9.76
2023-11-19T09:23:11.011Z,9.71
2023-11-19T09:24:16.361Z,9.68
2023-11-19T09:25:21.901Z,9.69
2023-11-19T09:26:24.098Z,9.72
2023-11-19T09:27:28.906Z,9.74
2023-11-19T09:28:31.058Z,9.78
2023-11-19T09:29:36.371Z,9.88
2023-11-19T09:30:38.613Z,10.01
2023-11-19T09:31:43.531Z,10.16
2023-11-19T09:32:45.781Z,10.44
2023-11-19T09:33:50.814Z,10.64
2023-11-19T09:34:53.088Z,10.73
2023-11-19T09:35:59.050Z,10.81
2023-11-19T09:37:01.249Z,10.77
2023-11-19T09:38:09.003Z,10.79
2023-11-19T09:39:11.259Z,10.87
2023-11-19T09:40:16.278Z,10.95
2023-11-19T09:41:20.831Z,10.83
2023-11-19T09:42:25.677Z,10.77
2023-11-19T09:43:29.707Z,10.69
2023-11-19T09:44:34.717Z,10.66
2023-11-19T09:45:49.095Z,10.60
2023-11-19T09:46:53.975Z,10.47
2023-11-19T09:47:59.084Z,10.45
2023-11-19T09:49:05.099Z,10.44
2023-11-19T09:50:10.649Z,10.39
2023-11-19T09:51:13.392Z,10.41
2023-11-19T09:52:18.570Z,10.29
2023-11-19T09:53:23.320Z,10.21
2023-11-19T09:54:28.163Z,10.20
2023-11-19T09:55:30.309Z,10.16
2023-11-19T09:56:36.503Z,10.11
2023-11-19T09:57:40.715Z,10.11
2023-11-19T09:58:45.820Z,10.09
2023-11-19T09:59:48.878Z,10.07
2023-11-19T10:01:20.107Z,10.09
2023-11-19T10:02:18.505Z,10.16
2023-11-19T10:03:23.570Z,10.15
2023-11-19T10:04:27.082Z,10.16
2023-11-19T10:05:32.130Z,10.23
2023-11-19T10:06:34.566Z,10.09
2023-11-19T10:07:39.457Z,10.03
2023-11-19T10:08:45.652Z,9.93
2023-11-19T10:09:51.039Z,9.92
2023-11-19T10:10:53.408Z,9.87
2023-11-19T10:11:58.201Z,9.83
2023-11-19T10:13:01.845Z,9.82
2023-11-19T10:14:06.720Z,9.83
2023-11-19T10:15:21.165Z,9.85
2023-11-19T10:16:33.218Z,9.88
2023-11-19T10:17:36.235Z,9.96
2023-11-19T10:18:42.454Z,10.11
2023-11-19T10:19:44.681Z,10.42
2023-11-19T10:20:49.691Z,10.69
2023-11-19T10:21:51.889Z,10.79
2023-11-19T10:22:57.736Z,10.86
2023-11-19T10:24:02.536Z,10.87
2023-11-19T10:25:08.208Z,10.78
2023-11-19T10:26:11.465Z,10.76
2023-11-19T10:27:16.955Z,10.87
2023-11-19T10:28:20.112Z,10.92
2023-11-19T10:29:24.994Z,10.86
2023-11-19T10:30:29.186Z,10.83
2023-11-19T10:31:33.987Z,10.91
2023-11-19T10:32:36.248Z,10.79
2023-11-19T10:33:41.144Z,10.79
2023-11-19T10:34:44.327Z,10.76
2023-11-19T10:37:02.982Z,10.81
2023-11-19T10:38:19.081Z,10.83
2023-11-19T10:39:25.111Z,10.92
2023-11-19T10:40:42.256Z,11.11
2023-11-19T10:41:44.447Z,11.35
2023-11-19T10:42:49.219Z,11.53
2023-11-19T10:43:51.415Z,11.78
2023-11-19T10:44:53.655Z,11.76
2023-11-19T10:46:12.621Z,11.82
2023-11-19T10:47:16.325Z,11.82
2023-11-19T10:48:22.862Z,11.90
2023-11-19T10:49:25.085Z,11.85
2023-11-19T10:50:27.415Z,11.82
2023-11-19T10:51:33.429Z,11.87
2023-11-19T10:52:36.808Z,11.84
2023-11-19T10:53:42.458Z,12.16
2023-11-19T10:54:51.164Z,12.35
2023-11-19T10:55:59.732Z,12.39
2023-11-19T10:57:03.515Z,12.26
2023-11-19T10:58:10.521Z,12.15
2023-11-19T11:00:22.713Z,12.28
2023-11-19T11:01:32.108Z,12.17
2023-11-19T11:02:41.759Z,12.00
2023-11-19T11:03:48.636Z,12.01
2023-11-19T11:04:52.091Z,12.00
2023-11-19T11:05:57.779Z,11.95
2023-11-19T11:07:03.503Z,11.88
2023-11-19T11:08:08.245Z,11.80
2023-11-19T11:09:16.587Z,11.91
2023-11-19T11:10:23.732Z,11.98
2023-11-19T11:11:28.593Z,11.92
2023-11-19T11:12:35.386Z,11.92
2023-11-19T11:13:45.695Z,12.01
2023-11-19T11:14:48.226Z,12.22
2023-11-19T11:15:55.166Z,12.52
2023-11-19T11:16:59.551Z,12.63
2023-11-19T11:18:05.875Z,12.81
2023-11-19T11:19:08.274Z,13.00
2023-11-19T11:20:14.827Z,13.07
2023-11-19T11:21:21.824Z,13.18
2023-11-19T11:23:49.726Z,12.98
2023-11-19T11:25:18.319Z,12.70
2023-11-19T11:26:41.304Z,12.53
2023-11-19T11:28:08.478Z,12.25
2023-11-19T11:29:17.657Z,12.35
2023-11-19T11:30:35.916Z,12.63
2023-11-19T11:31:46.305Z,12.93
2023-11-19T11:32:59.088Z,12.88
2023-11-19T11:34:17.030Z,13.04
2023-11-19T11:35:33.472Z,13.16
2023-11-19T11:36:48.222Z,13.01
2023-11-19T11:38:00.127Z,12.98
2023-11-19T11:39:09.124Z,12.98
2023-11-19T11:40:17.269Z,13.10
2023-11-19T11:41:30.508Z,13.13
2023-11-19T11:42:36.524Z,12.95
2023-11-19T11:43:51.733Z,12.58
2023-11-19T11:45:03.878Z,12.77
2023-11-19T11:46:10.741Z,12.48
2023-11-19T11:47:12.966Z,12.46
2023-11-19T11:48:21.081Z,12.45
2023-11-19T11:49:31.290Z,12.38
2023-11-19T11:50:37.003Z,12.42
2023-11-19T11:52:07.395Z,12.30
2023-11-19T11:53:17.303Z,12.17
2023-11-19T11:54:32.022Z,12.14
2023-11-19T11:55:37.719Z,12.06
2023-11-19T11:56:45.301Z,11.91
2023-11-19T11:57:48.869Z,11.95
2023-11-19T11:58:53.704Z,11.88
2023-11-19T11:59:56.427Z,11.85
2023-11-19T12:00:59.780Z,11.81
2023-11-19T12:02:04.575Z,11.93
2023-11-19T12:03:08.517Z,11.81
2023-11-19T12:04:14.298Z,11.75
2023-11-19T12:05:16.739Z,11.65
2023-11-19T12:06:25.441Z,11.61
2023-11-19T12:07:27.539Z,11.58
2023-11-19T12:08:31.647Z,11.56
2023-11-19T12:09:37.155Z,11.63
2023-11-19T12:10:46.577Z,11.63
2023-11-19T12:12:11.675Z,11.89
2023-11-19T12:13:14.245Z,11.94
2023-11-19T12:14:19.103Z,11.98
2023-11-19T12:15:26.342Z,12.28
2023-11-19T12:16:32.330Z,12.49
2023-11-19T12:17:51.144Z,12.90
2023-11-19T12:18:58.027Z,12.95
2023-11-19T12:20:01.395Z,12.94
2023-11-19T12:21:03.794Z,13.26
2023-11-19T12:22:14.915Z,13.36
2023-11-19T12:23:17.057Z,13.19
2023-11-19T12:24:24.043Z,13.05
2023-11-19T12:25:26.585Z,13.07
2023-11-19T12:26:36.306Z,13.04
2023-11-19T12:27:45.407Z,13.31
2023-11-19T12:28:59.010Z,13.07
2023-11-19T12:30:01.180Z,13.09
2023-11-19T12:31:13.252Z,13.30
2023-11-19T12:32:15.819Z,13.54
2023-11-19T12:33:21.167Z,13.61
2023-11-19T12:34:25.908Z,13.76
2023-11-19T12:35:30.863Z,13.63
2023-11-19T12:36:33.103Z,13.65
2023-11-19T12:37:36.693Z,13.65
2023-11-19T12:38:42.382Z,13.58
2023-11-19T12:39:47.510Z,13.66
2023-11-19T12:41:06.881Z,13.62
2023-11-19T12:42:09.154Z,13.30
2023-11-19T12:43:25.606Z,13.21
2023-11-19T12:44:27.784Z,13.41
2023-11-19T12:45:40.160Z,13.31
2023-11-19T12:46:42.391Z,13.25
2023-11-19T12:47:49.123Z,13.32
2023-11-19T12:48:52.443Z,13.26
2023-11-19T12:49:57.664Z,13.08
2023-11-19T12:51:02.900Z,13.13
2023-11-19T12:52:14.024Z,13.25
2023-11-19T12:53:19.634Z,13.17
2023-11-19T12:54:21.959Z,13.12
2023-11-19T12:55:31.724Z,13.11
2023-11-19T12:56:34.122Z,13.03
2023-11-19T12:57:43.394Z,12.81
2023-11-19T12:58:49.819Z,13.00
2023-11-19T12:59:58.009Z,12.88
2023-11-19T13:01:06.930Z,12.90
2023-11-19T13:02:09.212Z,12.96
2023-11-19T13:03:13.913Z,12.87
2023-11-19T13:04:19.895Z,12.81
2023-11-19T13:05:24.437Z,12.64
2023-11-19T13:06:29.753Z,12.49
2023-11-19T13:07:31.941Z,12.53
2023-11-19T13:08:45.450Z,12.58
2023-11-19T13:09:47.951Z,12.63
2023-11-19T13:10:56.789Z,12.47
2023-11-19T13:11:59.678Z,12.56
2023-11-19T13:13:09.699Z,12.35
2023-11-19T13:14:15.037Z,12.50
2023-11-19T13:15:28.885Z,12.48
2023-11-19T13:16:31.699Z,12.48
2023-11-19T13:17:36.571Z,12.40
2023-11-19T13:19:48.395Z,12.26
2023-11-19T13:20:50.633Z,12.28
2023-11-19T13:21:58.094Z,12.21
2023-11-19T13:23:01.356Z,12.18
2023-11-19T13:24:03.884Z,12.10
2023-11-19T13:25:09.564Z,12.14
2023-11-19T13:26:12.068Z,12.18
2023-11-19T13:27:17.447Z,12.26
2023-11-19T13:28:19.585Z,12.18
2023-11-19T13:29:27.467Z,12.01
2023-11-19T13:30:30.961Z,12.08
2023-11-19T13:31:36.557Z,12.13
2023-11-19T13:32:40.554Z,12.19
2023-11-19T13:33:45.427Z,12.20
2023-11-19T13:34:47.622Z,12.29
2023-11-19T13:35:52.585Z,12.28
2023-11-19T13:36:54.716Z,12.34
2023-11-19T13:37:59.474Z,12.24
2023-11-19T13:39:02.454Z,12.31
2023-11-19T13:40:08.308Z,12.23
2023-11-19T13:41:13.725Z,12.18
2023-11-19T13:42:18.495Z,12.28
2023-11-19T13:43:21.222Z,12.34
2023-11-19T13:44:29.236Z,12.28
2023-11-19T13:45:31.411Z,12.42
2023-11-19T13:46:36.201Z,12.48
2023-11-19T13:47:38.425Z,12.89
2023-11-19T13:48:43.334Z,13.72
2023-11-19T13:49:46.337Z,14.63
2023-11-19T13:50:51.479Z,15.11
2023-11-19T13:51:55.434Z,15.10
2023-11-19T13:53:01.005Z,15.60
2023-11-19T13:54:03.338Z,16.61
2023-11-19T13:55:10.333Z,16.91
2023-11-19T13:56:14.169Z,17.24
2023-11-19T13:57:19.575Z,17.06
2023-11-19T13:58:21.736Z,16.94
2023-11-19T13:59:29.076Z,16.09
2023-11-19T14:00:31.819Z,15.52
2023-11-19T14:01:36.559Z,15.50
2023-11-19T14:02:39.080Z,14.86
2023-11-19T14:03:43.961Z,14.81
2023-11-19T14:04:46.269Z,14.77
2023-11-19T14:05:53.617Z,14.79
2023-11-19T14:06:57.106Z,14.70
2023-11-19T14:08:03.835Z,15.04
2023-11-19T14:09:08.462Z,15.02
2023-11-19T14:10:14.267Z,14.52
2023-11-19T14:11:16.456Z,14.69
2023-11-19T14:12:18.741Z,14.40
2023-11-19T14:13:23.613Z,14.53
2023-11-19T14:14:28.381Z,14.32
2023-11-19T14:15:33.251Z,14.23
2023-11-19T14:16:35.880Z,14.15
2023-11-19T14:17:40.783Z,14.01
2023-11-19T14:18:42.934Z,13.84
2023-11-19T14:19:45.369Z,13.61
2023-11-19T14:20:50.169Z,13.73
2023-11-19T14:21:52.784Z,13.97
2023-11-19T14:22:57.591Z,14.65
2023-11-19T14:24:00.210Z,15.43
2023-11-19T14:25:06.431Z,15.97
2023-11-19T14:26:08.865Z,16.25